createdAt,value
2023-04-22T00:00:55.280Z,0.00
2023-04-22T00:01:55.261Z,0.00
2023-04-22T00:02:55.363Z,0.00
2023-04-22T00:03:55.462Z,0.00
2023-04-22T00:04:55.483Z,0.00
2023-04-22T00:05:55.298Z,0.00
2023-04-22T00:06:55.200Z,0.00
2023-04-22T00:07:55.193Z,0.00
2023-04-22T00:08:55.176Z,0.00
2023-04-22T00:09:55.172Z,0.00
2023-04-22T00:10:55.182Z,0.00
2023-04-22T00:11:55.194Z,0.00
2023-04-22T00:12:55.169Z,0.00
2023-04-22T00:13:55.154Z,0.00
2023-04-22T00:14:55.125Z,0.00
2023-04-22T00:15:55.210Z,0.00
2023-04-22T00:16:55.094Z,0.00
2023-04-22T00:17:55.125Z,0.00
2023-04-22T00:18:55.104Z,0.00
2023-04-22T00:19:55.075Z,0.00
2023-04-22T00:20:55.081Z,0.00
2023-04-22T00:21:55.054Z,0.00
2023-04-22T00:22:55.053Z,0.00
2023-04-22T00:23:55.058Z,0.00
2023-04-22T00:24:55.034Z,0.00
2023-04-22T00:25:55.129Z,0.00
2023-04-22T00:26:55.007Z,0.00
2023-04-22T00:27:54.991Z,0.00
2023-04-22T00:28:55.025Z,0.00
2023-04-22T00:29:54.966Z,0.00
2023-04-22T00:30:55.059Z,0.00
2023-04-22T00:31:55.035Z,0.00
2023-04-22T00:32:55.178Z,0.00
2023-04-22T00:33:54.933Z,0.00
2023-04-22T00:34:54.920Z,0.00
2023-04-22T00:35:54.922Z,0.00
2023-04-22T00:36:54.905Z,0.00
2023-04-22T00:37:54.889Z,0.00
2023-04-22T00:38:54.881Z,0.00
2023-04-22T00:39:54.865Z,0.00
2023-04-22T00:40:54.875Z,0.00
2023-04-22T00:41:54.837Z,0.00
2023-04-22T00:42:54.859Z,0.00
2023-04-22T00:43:54.836Z,0.00
2023-04-22T00:44:54.811Z,0.00
2023-04-22T00:45:54.820Z,0.00
2023-04-22T00:46:54.887Z,0.00
2023-04-22T00:47:54.867Z,0.00
2023-04-22T00:48:54.766Z,0.00
2023-04-22T00:49:54.795Z,0.00
2023-04-22T00:50:54.780Z,0.00
2023-04-22T00:51:54.745Z,0.00
2023-04-22T00:52:54.730Z,0.00
2023-04-22T00:53:54.723Z,0.00
2023-04-22T00:54:54.706Z,0.00
2023-04-22T00:55:54.730Z,0.00
2023-04-22T00:56:54.684Z,0.00
2023-04-22T00:57:54.685Z,0.00
2023-04-22T00:58:54.672Z,0.00
2023-04-22T00:59:54.662Z,0.00
2023-04-22T01:00:54.689Z,0.00
2023-04-22T01:01:54.679Z,0.00
2023-04-22T01:02:54.720Z,0.00
2023-04-22T01:03:54.952Z,0.00
2023-04-22T01:04:54.620Z,0.00
2023-04-22T01:05:54.634Z,0.00
2023-04-22T01:06:54.595Z,0.00
2023-04-22T01:07:54.600Z,0.00
2023-04-22T01:08:54.591Z,0.00
2023-04-22T01:09:54.575Z,0.00
2023-04-22T01:10:54.575Z,0.00
2023-04-22T01:11:54.543Z,0.00
2023-04-22T01:12:54.537Z,0.00
2023-04-22T01:13:54.529Z,0.00
2023-04-22T01:14:54.521Z,0.00
2023-04-22T01:15:54.530Z,0.00
2023-04-22T01:16:54.544Z,0.00
2023-04-22T01:17:54.500Z,0.00
2023-04-22T01:18:54.477Z,0.00
2023-04-22T01:19:54.468Z,0.00
2023-04-22T01:20:54.524Z,0.00
2023-04-22T01:21:54.446Z,0.00
2023-04-22T01:22:54.429Z,0.00
2023-04-22T01:23:55.441Z,0.00
2023-04-22T01:24:54.424Z,0.00
2023-04-22T01:25:54.445Z,0.00
2023-04-22T01:26:54.404Z,0.00
2023-04-22T01:27:54.389Z,0.00
2023-04-22T01:28:54.358Z,0.00
2023-04-22T01:29:55.376Z,0.00
2023-04-22T01:30:54.386Z,0.00
2023-04-22T01:31:54.430Z,0.00
2023-04-22T01:32:54.358Z,0.00
2023-04-22T01:33:54.323Z,0.00
2023-04-22T01:34:54.318Z,0.00
2023-04-22T01:35:54.336Z,0.00
2023-04-22T01:36:54.286Z,0.00
2023-04-22T01:37:54.298Z,0.00
2023-04-22T01:38:54.281Z,0.00
2023-04-22T01:39:54.272Z,0.00
2023-04-22T01:40:54.268Z,0.00
2023-04-22T01:41:54.241Z,0.00
2023-04-22T01:42:54.230Z,0.00
2023-04-22T01:43:54.214Z,0.00
2023-04-22T01:44:54.212Z,0.00
2023-04-22T01:45:54.299Z,0.00
2023-04-22T01:46:54.194Z,0.00
2023-04-22T01:47:54.252Z,0.00
2023-04-22T01:48:54.172Z,0.00
2023-04-22T01:49:54.160Z,0.00
2023-04-22T01:50:54.187Z,0.00
2023-04-22T01:51:54.147Z,0.00
2023-04-22T01:52:54.151Z,0.00
2023-04-22T01:53:54.125Z,0.00
2023-04-22T01:54:54.111Z,0.00
2023-04-22T01:55:54.141Z,0.00
2023-04-22T01:56:54.099Z,0.00
2023-04-22T01:57:54.077Z,0.00
2023-04-22T01:58:54.065Z,0.00
2023-04-22T01:59:54.066Z,0.00
2023-04-22T02:00:54.070Z,0.00
2023-04-22T02:01:54.116Z,0.00
2023-04-22T02:02:54.179Z,0.00
2023-04-22T02:03:54.109Z,0.00
2023-04-22T02:04:54.063Z,0.00
2023-04-22T02:05:54.031Z,0.00
2023-04-22T02:06:54.016Z,0.00
2023-04-22T02:07:53.995Z,0.00
2023-04-22T02:08:53.966Z,0.00
2023-04-22T02:09:53.966Z,0.00
2023-04-22T02:10:53.963Z,0.00
2023-04-22T02:11:53.932Z,0.00
2023-04-22T02:12:53.944Z,0.00
2023-04-22T02:13:53.925Z,0.00
2023-04-22T02:14:53.903Z,0.00
2023-04-22T02:15:53.952Z,0.00
2023-04-22T02:16:53.887Z,0.00
2023-04-22T02:17:53.886Z,0.00
2023-04-22T02:18:53.873Z,0.00
2023-04-22T02:19:53.983Z,0.00
2023-04-22T02:20:53.862Z,0.00
2023-04-22T02:21:53.837Z,0.00
2023-04-22T02:22:53.829Z,0.00
2023-04-22T02:23:53.822Z,0.00
2023-04-22T02:24:53.806Z,0.00
2023-04-22T02:25:53.791Z,0.00
2023-04-22T02:26:53.804Z,0.00
2023-04-22T02:27:53.768Z,0.00
2023-04-22T02:28:53.777Z,0.00
2023-04-22T02:29:53.756Z,0.00
2023-04-22T02:30:53.786Z,0.00
2023-04-22T02:31:53.897Z,0.00
2023-04-22T02:32:53.752Z,0.00
2023-04-22T02:33:53.719Z,0.00
2023-04-22T02:34:53.708Z,0.00
2023-04-22T02:35:53.696Z,0.00
2023-04-22T02:36:53.703Z,0.00
2023-04-22T02:37:53.680Z,0.00
2023-04-22T02:38:53.661Z,0.00
2023-04-22T02:39:53.661Z,0.00
2023-04-22T02:40:53.640Z,0.00
2023-04-22T02:41:53.651Z,0.00
2023-04-22T02:42:53.625Z,0.00
2023-04-22T02:43:53.616Z,0.00
2023-04-22T02:44:53.596Z,0.00
2023-04-22T02:45:53.596Z,0.00
2023-04-22T02:46:53.632Z,0.00
2023-04-22T02:47:53.593Z,0.00
2023-04-22T02:48:53.566Z,0.00
2023-04-22T02:49:53.559Z,0.00
2023-04-22T02:50:53.540Z,0.00
2023-04-22T02:51:53.556Z,0.00
2023-04-22T02:52:53.539Z,0.00
2023-04-22T02:53:53.543Z,0.00
2023-04-22T02:54:53.495Z,0.00
2023-04-22T02:55:53.496Z,0.00
2023-04-22T02:56:53.549Z,0.00
2023-04-22T02:57:53.472Z,0.00
2023-04-22T02:58:53.457Z,0.00
2023-04-22T02:59:53.449Z,0.00
2023-04-22T03:00:53.554Z,0.00
2023-04-22T03:01:53.478Z,0.00
2023-04-22T03:02:53.486Z,0.00
2023-04-22T03:03:53.692Z,0.00
2023-04-22T03:04:53.395Z,0.00
2023-04-22T03:05:53.386Z,0.00
2023-04-22T03:06:53.402Z,0.00
2023-04-22T03:07:54.365Z,0.00
2023-04-22T03:08:53.380Z,0.00
2023-04-22T03:09:53.347Z,0.00
2023-04-22T03:10:53.352Z,0.00
2023-04-22T03:11:53.353Z,0.00
2023-04-22T03:12:53.332Z,0.00
2023-04-22T03:13:53.308Z,0.00
2023-04-22T03:14:53.306Z,0.00
2023-04-22T03:15:53.285Z,0.00
2023-04-22T03:16:53.552Z,0.00
2023-04-22T03:17:53.283Z,0.00
2023-04-22T03:18:53.257Z,0.00
2023-04-22T03:19:53.259Z,0.00
2023-04-22T03:20:53.232Z,0.00
2023-04-22T03:21:53.250Z,0.00
2023-04-22T03:22:53.218Z,0.00
2023-04-22T03:23:53.209Z,0.00
2023-04-22T03:24:53.209Z,0.00
2023-04-22T03:25:53.180Z,0.00
2023-04-22T03:26:53.197Z,0.00
2023-04-22T03:27:53.164Z,0.00
2023-04-22T03:28:53.151Z,0.00
2023-04-22T03:29:53.146Z,0.00
2023-04-22T03:30:53.133Z,0.00
2023-04-22T03:31:53.244Z,0.00
2023-04-22T03:32:53.144Z,0.00
2023-04-22T03:33:53.111Z,0.00
2023-04-22T03:34:53.095Z,0.00
2023-04-22T03:35:53.079Z,0.00
2023-04-22T03:36:53.118Z,4.00
2023-04-22T03:37:53.086Z,0.00
2023-04-22T03:38:53.078Z,0.00
2023-04-22T03:39:53.054Z,0.00
2023-04-22T03:40:53.032Z,4.00
2023-04-22T03:41:53.044Z,4.00
2023-04-22T03:42:53.015Z,0.00
2023-04-22T03:43:53.005Z,4.00
2023-04-22T03:44:52.993Z,0.00
2023-04-22T03:45:53.053Z,4.00
2023-04-22T03:46:52.997Z,4.00
2023-04-22T03:47:53.031Z,4.00
2023-04-22T03:48:52.984Z,4.00
2023-04-22T03:49:52.945Z,4.00
2023-04-22T03:50:52.927Z,4.00
2023-04-22T03:51:52.940Z,8.00
2023-04-22T03:52:52.910Z,8.00
2023-04-22T03:53:52.912Z,12.00
2023-04-22T03:54:52.887Z,12.00
2023-04-22T03:55:52.886Z,12.00
2023-04-22T03:56:52.907Z,12.00
2023-04-22T03:57:52.862Z,16.00
2023-04-22T03:58:52.853Z,20.00
2023-04-22T03:59:52.848Z,24.00
2023-04-22T04:00:52.824Z,24.00
2023-04-22T04:01:52.878Z,32.00
2023-04-22T04:02:52.940Z,36.00
2023-04-22T04:03:53.053Z,44.00
2023-04-22T04:04:53.068Z,48.00
2023-04-22T04:05:52.865Z,56.00
2023-04-22T04:06:52.807Z,64.00
2023-04-22T04:07:52.777Z,76.00
2023-04-22T04:08:52.756Z,88.00
2023-04-22T04:09:52.749Z,96.00
2023-04-22T04:10:52.754Z,108.00
2023-04-22T04:11:52.770Z,124.00
2023-04-22T04:12:52.718Z,140.00
2023-04-22T04:13:52.710Z,156.00
2023-04-22T04:14:52.732Z,176.00
2023-04-22T04:15:52.784Z,192.00
2023-04-22T04:16:52.746Z,208.00
2023-04-22T04:17:52.744Z,232.00
2023-04-22T04:18:52.650Z,252.00
2023-04-22T04:19:52.649Z,276.00
2023-04-22T04:20:52.632Z,300.00
2023-04-22T04:21:52.666Z,328.00
2023-04-22T04:22:52.618Z,360.00
2023-04-22T04:23:52.616Z,388.00
2023-04-22T04:24:52.588Z,412.00
2023-04-22T04:25:52.585Z,444.00
2023-04-22T04:26:52.625Z,472.00
2023-04-22T04:27:52.573Z,496.00
2023-04-22T04:28:52.545Z,516.00
2023-04-22T04:29:52.573Z,540.00
2023-04-22T04:30:52.553Z,568.00
2023-04-22T04:31:52.643Z,596.00
2023-04-22T04:32:52.514Z,616.00
2023-04-22T04:33:52.491Z,636.00
2023-04-22T04:34:52.499Z,660.00
2023-04-22T04:35:52.474Z,684.00
2023-04-22T04:36:52.480Z,712.00
2023-04-22T04:37:52.455Z,748.00
2023-04-22T04:38:55.156Z,788.00
2023-04-22T04:39:52.431Z,836.00
2023-04-22T04:40:52.425Z,892.00
2023-04-22T04:41:52.433Z,952.00
2023-04-22T04:42:52.411Z,1016.00
2023-04-22T04:43:52.394Z,1080.00
2023-04-22T04:44:52.385Z,1148.00
2023-04-22T04:45:52.381Z,1220.00
2023-04-22T04:46:52.429Z,1288.00
2023-04-22T04:47:52.369Z,1364.00
2023-04-22T04:48:52.347Z,1436.00
2023-04-22T04:49:52.341Z,1512.00
2023-04-22T04:50:52.313Z,1588.00
2023-04-22T04:51:52.334Z,1668.00
2023-04-22T04:52:52.990Z,1752.00
2023-04-22T04:53:53.296Z,1840.00
2023-04-22T04:54:52.315Z,1928.00
2023-04-22T04:55:52.261Z,2020.00
2023-04-22T04:56:52.279Z,2108.00
2023-04-22T04:57:52.251Z,2204.00
2023-04-22T04:58:52.245Z,2296.00
2023-04-22T04:59:52.236Z,2388.00
2023-04-22T05:00:52.220Z,2480.00
2023-04-22T05:01:52.297Z,2568.00
2023-04-22T05:02:52.445Z,2652.00
2023-04-22T05:03:52.326Z,2728.00
2023-04-22T05:04:52.434Z,2804.00
2023-04-22T05:05:52.169Z,2876.00
2023-04-22T05:06:52.176Z,2940.00
2023-04-22T05:07:52.141Z,3008.00
2023-04-22T05:08:52.143Z,3068.00
2023-04-22T05:09:52.123Z,3132.00
2023-04-22T05:10:52.125Z,3196.00
2023-04-22T05:11:52.205Z,3260.00
2023-04-22T05:12:52.114Z,3324.00
2023-04-22T05:13:52.092Z,3388.00
2023-04-22T05:14:52.076Z,3444.00
2023-04-22T05:15:52.080Z,3508.00
2023-04-22T05:16:52.242Z,3580.00
2023-04-22T05:17:52.093Z,3676.00
2023-04-22T05:18:52.050Z,3764.00
2023-04-22T05:19:52.057Z,3876.00
2023-04-22T05:20:52.021Z,4024.00
2023-04-22T05:21:52.018Z,4132.00
2023-04-22T05:22:52.082Z,4296.00
2023-04-22T05:23:52.986Z,4360.00
2023-04-22T05:24:51.996Z,4420.00
2023-04-22T05:25:53.412Z,4476.00
2023-04-22T05:26:53.011Z,4548.00
2023-04-22T05:27:51.949Z,4612.00
2023-04-22T05:28:51.939Z,4672.00
2023-04-22T05:29:51.930Z,4668.00
2023-04-22T05:30:51.926Z,4704.00
2023-04-22T05:31:52.036Z,4736.00
2023-04-22T05:32:51.954Z,4772.00
2023-04-22T05:33:51.895Z,4824.00
2023-04-22T05:34:51.879Z,4888.00
2023-04-22T05:35:51.878Z,4952.00
2023-04-22T05:36:51.894Z,5028.00
2023-04-22T05:37:51.852Z,5112.00
2023-04-22T05:38:51.835Z,5200.00
2023-04-22T05:39:51.830Z,5280.00
2023-04-22T05:40:51.828Z,5360.00
2023-04-22T05:41:51.878Z,5484.00
2023-04-22T05:42:51.795Z,5616.00
2023-04-22T05:43:51.799Z,5736.00
2023-04-22T05:44:51.795Z,5864.00
2023-04-22T05:45:51.858Z,5980.00
2023-04-22T05:46:51.788Z,6000.00
2023-04-22T05:47:51.771Z,6048.00
2023-04-22T05:48:51.745Z,6132.00
2023-04-22T05:49:51.731Z,6276.00
2023-04-22T05:50:51.713Z,6312.00
2023-04-22T05:51:51.724Z,6420.00
2023-04-22T05:52:51.700Z,6480.00
2023-04-22T05:53:51.694Z,6496.00
2023-04-22T05:54:51.689Z,6500.00
2023-04-22T05:55:51.670Z,6596.00
2023-04-22T05:56:51.683Z,6728.00
2023-04-22T05:57:51.648Z,6616.00
2023-04-22T05:58:51.639Z,6496.00
2023-04-22T05:59:51.634Z,6564.00
2023-04-22T06:00:51.631Z,6692.00
2023-04-22T06:01:51.608Z,6944.00
2023-04-22T06:02:51.742Z,7132.00
2023-04-22T06:03:51.790Z,7296.00
2023-04-22T06:04:51.764Z,7312.00
2023-04-22T06:05:51.615Z,7472.00
2023-04-22T06:06:51.552Z,7460.00
2023-04-22T06:07:52.581Z,7588.00
2023-04-22T06:08:51.536Z,7624.00
2023-04-22T06:09:57.058Z,7588.00
2023-04-22T06:10:52.523Z,7688.00
2023-04-22T06:11:51.510Z,7688.00
2023-04-22T06:12:51.518Z,7688.00
2023-04-22T06:13:51.529Z,7772.00
2023-04-22T06:14:51.475Z,7908.00
2023-04-22T06:15:51.528Z,8080.00
2023-04-22T06:16:51.459Z,8324.00
2023-04-22T06:18:26.457Z,8592.00
2023-04-22T06:18:51.425Z,8588.00
2023-04-22T06:19:52.428Z,8736.00
2023-04-22T06:20:51.457Z,8632.00
2023-04-22T06:21:51.407Z,8540.00
2023-04-22T06:22:51.414Z,8304.00
2023-04-22T06:23:51.385Z,8220.00
2023-04-22T06:24:51.395Z,8308.00
2023-04-22T06:25:51.368Z,8272.00
2023-04-22T06:26:51.360Z,8304.00
2023-04-22T06:27:51.379Z,8328.00
2023-04-22T06:28:51.341Z,8500.00
2023-04-22T06:29:51.328Z,8752.00
2023-04-22T06:30:51.409Z,8636.00
2023-04-22T06:31:51.439Z,8492.00
2023-04-22T06:32:51.347Z,8364.00
2023-04-22T06:33:51.298Z,8320.00
2023-04-22T06:34:51.277Z,8284.00
2023-04-22T06:35:51.280Z,8128.00
2023-04-22T06:36:51.271Z,8068.00
2023-04-22T06:37:51.301Z,8056.00
2023-04-22T06:38:51.246Z,8044.00
2023-04-22T06:39:51.242Z,8068.00
2023-04-22T06:40:51.228Z,8096.00
2023-04-22T06:41:51.205Z,8136.00
2023-04-22T06:42:51.222Z,8160.00
2023-04-22T06:43:51.185Z,8224.00
2023-04-22T06:44:51.185Z,8244.00
2023-04-22T06:45:51.170Z,8236.00
2023-04-22T06:46:51.287Z,8240.00
2023-04-22T06:47:51.248Z,8264.00
2023-04-22T06:48:51.144Z,8316.00
2023-04-22T06:49:51.123Z,8340.00
2023-04-22T06:50:51.122Z,8348.00
2023-04-22T06:51:51.109Z,8384.00
2023-04-22T06:52:51.117Z,8408.00
2023-04-22T06:53:51.087Z,8400.00
2023-04-22T06:54:51.070Z,8388.00
2023-04-22T06:55:51.056Z,8452.00
2023-04-22T06:56:51.081Z,8424.00
2023-04-22T06:57:51.073Z,8412.00
2023-04-22T06:58:51.054Z,8380.00
2023-04-22T06:59:51.023Z,8344.00
2023-04-22T07:00:51.012Z,8364.00
2023-04-22T07:01:51.122Z,8440.00
2023-04-22T07:02:51.119Z,8412.00
2023-04-22T07:03:51.052Z,8444.00
2023-04-22T07:04:50.978Z,8488.00
2023-04-22T07:05:50.967Z,8532.00
2023-04-22T07:06:50.981Z,8604.00
2023-04-22T07:07:50.946Z,8732.00
2023-04-22T07:08:50.944Z,8924.00
2023-04-22T07:09:50.919Z,9032.00
2023-04-22T07:10:50.912Z,9124.00
2023-04-22T07:11:50.940Z,9204.00
2023-04-22T07:12:50.890Z,9292.00
2023-04-22T07:13:50.884Z,9472.00
2023-04-22T07:14:50.873Z,9608.00
2023-04-22T07:15:50.865Z,9652.00
2023-04-22T07:16:50.917Z,9680.00
2023-04-22T07:17:50.884Z,9764.00
2023-04-22T07:18:50.853Z,9804.00
2023-04-22T07:19:50.828Z,9784.00
2023-04-22T07:20:50.816Z,9712.00
2023-04-22T07:21:50.800Z,9652.00
2023-04-22T07:22:50.804Z,9640.00
2023-04-22T07:23:50.773Z,9588.00
2023-04-22T07:24:50.776Z,9604.00
2023-04-22T07:25:50.761Z,9528.00
2023-04-22T07:26:50.797Z,9400.00
2023-04-22T07:27:50.740Z,9476.00
2023-04-22T07:28:50.745Z,9600.00
2023-04-22T07:29:50.718Z,9684.00
2023-04-22T07:30:50.759Z,9728.00
2023-04-22T07:31:50.748Z,9780.00
2023-04-22T07:32:50.712Z,9840.00
2023-04-22T07:33:50.687Z,9892.00
2023-04-22T07:34:50.671Z,9948.00
2023-04-22T07:35:50.658Z,10064.00
2023-04-22T07:36:50.693Z,10160.00
2023-04-22T07:37:50.629Z,10236.00
2023-04-22T07:38:51.632Z,10332.00
2023-04-22T07:39:50.627Z,10396.00
2023-04-22T07:40:50.622Z,10496.00
2023-04-22T07:41:50.592Z,10512.00
2023-04-22T07:42:50.624Z,10624.00
2023-04-22T07:43:50.588Z,10708.00
2023-04-22T07:44:50.566Z,10696.00
2023-04-22T07:45:50.595Z,10760.00
2023-04-22T07:46:50.555Z,10832.00
2023-04-22T07:47:50.598Z,10852.00
2023-04-22T07:48:50.539Z,10872.00
2023-04-22T07:49:50.534Z,10780.00
2023-04-22T07:50:50.511Z,10676.00
2023-04-22T07:51:50.496Z,10688.00
2023-04-22T07:52:50.515Z,10752.00
2023-04-22T07:53:50.505Z,10828.00
2023-04-22T07:54:50.495Z,10912.00
2023-04-22T07:55:50.484Z,11004.00
2023-04-22T07:56:50.447Z,11084.00
2023-04-22T07:57:50.466Z,11216.00
2023-04-22T07:58:50.426Z,11360.00
2023-04-22T07:59:50.418Z,11484.00
2023-04-22T08:00:50.425Z,11256.00
2023-04-22T08:01:50.395Z,11664.00
2023-04-22T08:02:50.530Z,11688.00
2023-04-22T08:03:50.607Z,11800.00
2023-04-22T08:04:50.437Z,11920.00
2023-04-22T08:05:50.365Z,12024.00
2023-04-22T08:06:50.365Z,12100.00
2023-04-22T08:07:50.364Z,12160.00
2023-04-22T08:08:50.325Z,12228.00
2023-04-22T08:09:50.317Z,12216.00
2023-04-22T08:10:50.306Z,11948.00
2023-04-22T08:11:50.324Z,12388.00
2023-04-22T08:12:50.341Z,12436.00
2023-04-22T08:13:50.274Z,12556.00
2023-04-22T08:14:50.289Z,12640.00
2023-04-22T08:15:50.298Z,12660.00
2023-04-22T08:16:50.255Z,12696.00
2023-04-22T08:17:50.317Z,12756.00
2023-04-22T08:18:50.234Z,12672.00
2023-04-22T08:19:50.247Z,12588.00
2023-04-22T08:20:50.215Z,12488.00
2023-04-22T08:21:50.210Z,12552.00
2023-04-22T08:22:50.249Z,12572.00
2023-04-22T08:23:50.197Z,12616.00
2023-04-22T08:24:50.194Z,12600.00
2023-04-22T08:25:50.186Z,12372.00
2023-04-22T08:26:50.170Z,12164.00
2023-04-22T08:27:50.174Z,12724.00
2023-04-22T08:28:50.148Z,12724.00
2023-04-22T08:29:50.146Z,12672.00
2023-04-22T08:30:50.109Z,12744.00
2023-04-22T08:31:50.111Z,12788.00
2023-04-22T08:32:50.176Z,12684.00
2023-04-22T08:33:50.081Z,12716.00
2023-04-22T08:34:51.827Z,12472.00
2023-04-22T08:35:51.066Z,12520.00
2023-04-22T08:36:50.050Z,11964.00
2023-04-22T08:37:50.122Z,11856.00
2023-04-22T08:38:50.236Z,11500.00
2023-04-22T08:39:51.039Z,11236.00
2023-04-22T08:40:50.046Z,11108.00
2023-04-22T08:41:50.011Z,11092.00
2023-04-22T08:42:50.059Z,10980.00
2023-04-22T08:43:50.001Z,11028.00
2023-04-22T08:44:49.978Z,11144.00
2023-04-22T08:45:49.988Z,11120.00
2023-04-22T08:46:49.965Z,11668.00
2023-04-22T08:47:49.975Z,11440.00
2023-04-22T08:48:49.930Z,11476.00
2023-04-22T08:49:49.917Z,11520.00
2023-04-22T08:50:49.910Z,11320.00
2023-04-22T08:51:50.920Z,11876.00
2023-04-22T08:52:49.921Z,12164.00
2023-04-22T08:53:49.872Z,11992.00
2023-04-22T08:54:49.879Z,12260.00
2023-04-22T08:55:49.864Z,12108.00
2023-04-22T08:56:49.850Z,11948.00
2023-04-22T08:57:49.866Z,11992.00
2023-04-22T08:58:49.832Z,11784.00
2023-04-22T08:59:49.819Z,11996.00
2023-04-22T09:00:49.801Z,12116.00
2023-04-22T09:01:50.741Z,12312.00
2023-04-22T09:02:49.822Z,12192.00
2023-04-22T09:03:50.048Z,12572.00
2023-04-22T09:04:49.764Z,12620.00
2023-04-22T09:05:49.753Z,12804.00
2023-04-22T09:06:49.740Z,12248.00
2023-04-22T09:07:49.748Z,12568.00
2023-04-22T09:08:49.721Z,12996.00
2023-04-22T09:09:49.712Z,12300.00
2023-04-22T09:10:49.708Z,12320.00
2023-04-22T09:11:49.705Z,12036.00
2023-04-22T09:12:49.716Z,12504.00
2023-04-22T09:13:49.671Z,12828.00
2023-04-22T09:14:49.653Z,12676.00
2023-04-22T09:15:49.663Z,12924.00
2023-04-22T09:16:49.750Z,12712.00
2023-04-22T09:17:49.691Z,12728.00
2023-04-22T09:18:49.627Z,12764.00
2023-04-22T09:19:49.598Z,12752.00
2023-04-22T09:20:49.595Z,12420.00
2023-04-22T09:21:51.388Z,12444.00
2023-04-22T09:22:50.589Z,12500.00
2023-04-22T09:23:49.569Z,12324.00
2023-04-22T09:24:49.549Z,12652.00
2023-04-22T09:25:49.548Z,12472.00
2023-04-22T09:26:49.563Z,12508.00
2023-04-22T09:27:49.713Z,12520.00
2023-04-22T09:28:49.516Z,12656.00
2023-04-22T09:29:49.508Z,12472.00
2023-04-22T09:30:49.509Z,12528.00
2023-04-22T09:31:49.682Z,12556.00
2023-04-22T09:32:49.617Z,12440.00
2023-04-22T09:33:50.325Z,12328.00
2023-04-22T09:34:50.450Z,12216.00
2023-04-22T09:35:49.449Z,12072.00
2023-04-22T09:36:49.439Z,12148.00
2023-04-22T09:37:49.767Z,12176.00
2023-04-22T09:38:50.413Z,11752.00
2023-04-22T09:39:49.795Z,12208.00
2023-04-22T09:40:50.396Z,12132.00
2023-04-22T09:41:49.382Z,12064.00
2023-04-22T09:42:49.398Z,12048.00
2023-04-22T09:43:49.370Z,11820.00
2023-04-22T09:44:49.362Z,11632.00
2023-04-22T09:45:49.367Z,11796.00
2023-04-22T09:46:49.335Z,11848.00
2023-04-22T09:47:49.394Z,11772.00
2023-04-22T09:48:49.333Z,11812.00
2023-04-22T09:49:49.319Z,11716.00
2023-04-22T09:50:49.320Z,11752.00
2023-04-22T09:51:49.933Z,11668.00
2023-04-22T09:52:50.294Z,11472.00
2023-04-22T09:53:49.266Z,11604.00
2023-04-22T09:54:49.264Z,11528.00
2023-04-22T09:55:49.268Z,11568.00
2023-04-22T09:56:49.269Z,11528.00
2023-04-22T09:57:49.256Z,11416.00
2023-04-22T09:58:49.227Z,11260.00
2023-04-22T09:59:49.212Z,11096.00
2023-04-22T10:00:49.262Z,10876.00
2023-04-22T10:01:49.200Z,10708.00
2023-04-22T10:02:49.282Z,10380.00
2023-04-22T10:03:49.204Z,10160.00
2023-04-22T10:04:49.177Z,9428.00
2023-04-22T10:05:49.170Z,9540.00
2023-04-22T10:06:49.219Z,9584.00
2023-04-22T10:07:49.278Z,10424.00
2023-04-22T10:08:49.186Z,11108.00
2023-04-22T10:09:49.164Z,11076.00
2023-04-22T10:10:49.132Z,10944.00
2023-04-22T10:11:49.091Z,10840.00
2023-04-22T10:12:49.108Z,11292.00
2023-04-22T10:13:49.090Z,11648.00
2023-04-22T10:14:49.069Z,11544.00
2023-04-22T10:15:49.091Z,11680.00
2023-04-22T10:16:49.072Z,11676.00
2023-04-22T10:17:49.239Z,11768.00
2023-04-22T10:18:49.420Z,11924.00
2023-04-22T10:19:49.019Z,11984.00
2023-04-22T10:20:49.012Z,11992.00
2023-04-22T10:21:49.005Z,12040.00
2023-04-22T10:22:49.224Z,12084.00
2023-04-22T10:23:48.985Z,12156.00
2023-04-22T10:24:48.968Z,12268.00
2023-04-22T10:25:48.969Z,12388.00
2023-04-22T10:26:48.972Z,12448.00
2023-04-22T10:27:48.960Z,12544.00
2023-04-22T10:28:48.919Z,12624.00
2023-04-22T10:29:48.919Z,12680.00
2023-04-22T10:30:48.939Z,12768.00
2023-04-22T10:31:48.917Z,12916.00
2023-04-22T10:32:48.927Z,12984.00
2023-04-22T10:33:48.916Z,13012.00
2023-04-22T10:34:48.867Z,13016.00
2023-04-22T10:35:48.849Z,12996.00
2023-04-22T10:36:48.872Z,11328.00
2023-04-22T10:37:48.862Z,11784.00
2023-04-22T10:38:48.834Z,12300.00
2023-04-22T10:39:48.813Z,13432.00
2023-04-22T10:40:49.829Z,13616.00
2023-04-22T10:41:48.789Z,13744.00
2023-04-22T10:42:48.806Z,13724.00
2023-04-22T10:43:48.776Z,12240.00
2023-04-22T10:44:48.765Z,13944.00
2023-04-22T10:45:48.838Z,14560.00
2023-04-22T10:46:48.741Z,14976.00
2023-04-22T10:47:48.770Z,15264.00
2023-04-22T10:48:48.754Z,15040.00
2023-04-22T10:49:48.743Z,14720.00
2023-04-22T10:50:48.708Z,14336.00
2023-04-22T10:51:48.715Z,13428.00
2023-04-22T10:52:48.707Z,14160.00
2023-04-22T10:53:48.680Z,14232.00
2023-04-22T10:54:48.672Z,14316.00
2023-04-22T10:55:48.648Z,14416.00
2023-04-22T10:56:55.484Z,14536.00
2023-04-22T10:57:50.698Z,14752.00
2023-04-22T10:58:48.629Z,15008.00
2023-04-22T10:59:50.259Z,15296.00
2023-04-22T11:00:53.916Z,15360.00
2023-04-22T11:01:50.670Z,15456.00
2023-04-22T11:02:48.695Z,15488.00
2023-04-22T11:03:48.618Z,15392.00
2023-04-22T11:04:48.599Z,15488.00
2023-04-22T11:05:48.567Z,15360.00
2023-04-22T11:06:48.559Z,15328.00
2023-04-22T11:07:48.568Z,15552.00
2023-04-22T11:08:48.547Z,15712.00
2023-04-22T11:09:48.526Z,15808.00
2023-04-22T11:10:48.526Z,16064.00
2023-04-22T11:11:48.516Z,16096.00
2023-04-22T11:12:48.529Z,16160.00
2023-04-22T11:13:48.494Z,16256.00
2023-04-22T11:14:48.479Z,16352.00
2023-04-22T11:15:48.522Z,16352.00
2023-04-22T11:16:48.557Z,16224.00
2023-04-22T11:17:48.502Z,16192.00
2023-04-22T11:18:48.438Z,16256.00
2023-04-22T11:19:48.440Z,16416.00
2023-04-22T11:20:48.473Z,16576.00
2023-04-22T11:21:50.099Z,16864.00
2023-04-22T11:22:48.419Z,17088.00
2023-04-22T11:23:48.389Z,17312.00
2023-04-22T11:24:49.386Z,17472.00
2023-04-22T11:25:48.386Z,17664.00
2023-04-22T11:26:48.401Z,17792.00
2023-04-22T11:27:48.380Z,17888.00
2023-04-22T11:28:48.352Z,17888.00
2023-04-22T11:29:48.332Z,17760.00
2023-04-22T11:30:48.346Z,17920.00
2023-04-22T11:31:48.352Z,17600.00
2023-04-22T11:32:48.391Z,16896.00
2023-04-22T11:33:50.230Z,16736.00
2023-04-22T11:34:48.291Z,16448.00
2023-04-22T11:35:48.287Z,16192.00
2023-04-22T11:36:48.274Z,16096.00
2023-04-22T11:37:48.297Z,16000.00
2023-04-22T11:38:48.250Z,15872.00
2023-04-22T11:40:10.103Z,15648.00
2023-04-22T11:40:50.231Z,15564.00
2023-04-22T11:41:48.239Z,15508.00
2023-04-22T11:42:48.266Z,15512.00
2023-04-22T11:43:48.286Z,15744.00
2023-04-22T11:44:48.193Z,15808.00
2023-04-22T11:45:48.205Z,15840.00
2023-04-22T11:46:48.191Z,15776.00
2023-04-22T11:47:48.242Z,15776.00
2023-04-22T11:48:48.145Z,15552.00
2023-04-22T11:49:49.152Z,15648.00
2023-04-22T11:50:48.135Z,15488.00
2023-04-22T11:51:48.129Z,15360.00
2023-04-22T11:52:48.151Z,15328.00
2023-04-22T11:53:48.106Z,15124.00
2023-04-22T11:54:48.106Z,15232.00
2023-04-22T11:55:48.151Z,15264.00
2023-04-22T11:56:48.080Z,15000.00
2023-04-22T11:57:48.103Z,14868.00
2023-04-22T11:58:48.060Z,14648.00
2023-04-22T11:59:48.053Z,14624.00
2023-04-22T12:00:48.075Z,14636.00
2023-04-22T12:01:48.070Z,14576.00
2023-04-22T12:02:48.149Z,14640.00
2023-04-22T12:03:48.171Z,14640.00
2023-04-22T12:04:48.028Z,14848.00
2023-04-22T12:05:48.015Z,14912.00
2023-04-22T12:06:47.987Z,14568.00
2023-04-22T12:07:48.016Z,14592.00
2023-04-22T12:08:47.950Z,14784.00
2023-04-22T12:09:47.951Z,14368.00
2023-04-22T12:10:47.935Z,14784.00
2023-04-22T12:11:47.947Z,14656.00
2023-04-22T12:12:47.948Z,14352.00
2023-04-22T12:13:47.917Z,14144.00
2023-04-22T12:14:47.903Z,14056.00
2023-04-22T12:15:47.889Z,13804.00
2023-04-22T12:16:47.976Z,13644.00
2023-04-22T12:17:47.996Z,13528.00
2023-04-22T12:18:47.881Z,13684.00
2023-04-22T12:19:47.854Z,13624.00
2023-04-22T12:20:47.840Z,13632.00